sensor_id;sensor_type;location;lat;lon;timestamp;P1;durP1;ratioP1;P2;durP2;ratioP2
42146;SDS011;27815;43.410;11.852;2024-02-26T00:00:20;6.88;;;1.95;;
42146;SDS011;27815;43.410;11.852;2024-02-26T00:04:24;2.28;;;1.45;;
42146;SDS011;27815;43.410;11.852;2024-02-26T00:08:27;3.03;;;1.33;;
42146;SDS011;27815;43.410;11.852;2024-02-26T00:12:30;2.75;;;1.33;;
42146;SDS011;27815;43.410;11.852;2024-02-26T00:16:33;2.25;;;1.30;;
42146;SDS011;27815;43.410;11.852;2024-02-26T00:20:36;8.52;;;4.18;;
42146;SDS011;27815;43.410;11.852;2024-02-26T00:24:39;4.22;;;2.20;;
42146;SDS011;27815;43.410;11.852;2024-02-26T00:28:45;3.00;;;1.27;;
42146;SDS011;27815;43.410;11.852;2024-02-26T00:32:47;2.92;;;1.63;;
42146;SDS011;27815;43.410;11.852;2024-02-26T00:36:51;2.63;;;1.55;;
42146;SDS011;27815;43.410;11.852;2024-02-26T00:40:53;5.03;;;1.90;;
42146;SDS011;27815;43.410;11.852;2024-02-26T00:44:57;3.25;;;1.60;;
42146;SDS011;27815;43.410;11.852;2024-02-26T00:49:00;3.05;;;1.30;;
42146;SDS011;27815;43.410;11.852;2024-02-26T00:53:04;4.20;;;1.38;;
42146;SDS011;27815;43.410;11.852;2024-02-26T00:57:07;1.58;;;1.15;;
42146;SDS011;27815;43.410;11.852;2024-02-26T01:01:10;3.42;;;1.10;;
42146;SDS011;27815;43.410;11.852;2024-02-26T01:05:13;1.58;;;1.10;;
42146;SDS011;27815;43.410;11.852;2024-02-26T01:09:17;1.65;;;1.10;;
42146;SDS011;27815;43.410;11.852;2024-02-26T01:13:20;1.30;;;0.98;;
42146;SDS011;27815;43.410;11.852;2024-02-26T01:17:23;3.55;;;1.20;;
42146;SDS011;27815;43.410;11.852;2024-02-26T01:21:26;1.55;;;1.02;;
42146;SDS011;27815;43.410;11.852;2024-02-26T01:25:31;2.78;;;1.30;;
42146;SDS011;27815;43.410;11.852;2024-02-26T01:29:34;2.72;;;1.15;;
42146;SDS011;27815;43.410;11.852;2024-02-26T01:33:37;0.98;;;0.90;;
42146;SDS011;27815;43.410;11.852;2024-02-26T01:37:40;2.80;;;1.23;;
42146;SDS011;27815;43.410;11.852;2024-02-26T01:41:44;3.22;;;1.60;;
42146;SDS011;27815;43.410;11.852;2024-02-26T01:45:47;2.35;;;1.30;;
42146;SDS011;27815;43.410;11.852;2024-02-26T01:49:50;3.92;;;1.38;;
42146;SDS011;27815;43.410;11.852;2024-02-26T01:53:53;6.90;;;3.67;;
42146;SDS011;27815;43.410;11.852;2024-02-26T01:57:56;9.65;;;6.05;;
42146;SDS011;27815;43.410;11.852;2024-02-26T02:02:00;9.07;;;4.40;;
42146;SDS011;27815;43.410;11.852;2024-02-26T02:06:05;6.22;;;3.60;;
42146;SDS011;27815;43.410;11.852;2024-02-26T02:10:09;6.78;;;3.30;;
42146;SDS011;27815;43.410;11.852;2024-02-26T02:14:12;6.22;;;3.72;;
42146;SDS011;27815;43.410;11.852;2024-02-26T02:18:15;5.15;;;2.90;;
42146;SDS011;27815;43.410;11.852;2024-02-26T02:22:18;9.45;;;5.10;;
42146;SDS011;27815;43.410;11.852;2024-02-26T02:26:21;5.53;;;2.92;;
42146;SDS011;27815;43.410;11.852;2024-02-26T02:30:25;5.50;;;2.83;;
42146;SDS011;27815;43.410;11.852;2024-02-26T02:34:31;4.72;;;2.53;;
42146;SDS011;27815;43.410;11.852;2024-02-26T02:38:35;9.00;;;4.88;;
42146;SDS011;27815;43.410;11.852;2024-02-26T02:42:39;8.27;;;4.93;;
42146;SDS011;27815;43.410;11.852;2024-02-26T02:46:42;6.88;;;4.03;;
42146;SDS011;27815;43.410;11.852;2024-02-26T02:50:45;9.25;;;4.25;;
42146;SDS011;27815;43.410;11.852;2024-02-26T02:54:48;6.18;;;3.70;;
42146;SDS011;27815;43.410;11.852;2024-02-26T02:58:51;6.65;;;2.92;;
42146;SDS011;27815;43.410;11.852;2024-02-26T03:02:54;6.40;;;2.97;;
42146;SDS011;27815;43.410;11.852;2024-02-26T03:06:57;6.68;;;2.95;;
42146;SDS011;27815;43.410;11.852;2024-02-26T03:11:00;4.80;;;3.00;;
42146;SDS011;27815;43.410;11.852;2024-02-26T03:15:03;5.57;;;3.20;;
42146;SDS011;27815;43.410;11.852;2024-02-26T03:19:07;4.78;;;2.83;;
42146;SDS011;27815;43.410;11.852;2024-02-26T03:23:10;5.55;;;2.25;;
42146;SDS011;27815;43.410;11.852;2024-02-26T03:27:15;5.10;;;2.20;;
42146;SDS011;27815;43.410;11.852;2024-02-26T03:31:18;4.95;;;2.22;;
42146;SDS011;27815;43.410;11.852;2024-02-26T03:35:22;4.85;;;2.40;;
42146;SDS011;27815;43.410;11.852;2024-02-26T03:39:25;4.93;;;1.67;;
42146;SDS011;27815;43.410;11.852;2024-02-26T03:43:27;4.28;;;1.85;;
42146;SDS011;27815;43.410;11.852;2024-02-26T03:47:30;3.78;;;2.00;;
42146;SDS011;27815;43.410;11.852;2024-02-26T03:51:34;2.42;;;1.30;;
42146;SDS011;27815;43.410;11.852;2024-02-26T03:55:37;4.13;;;2.15;;
42146;SDS011;27815;43.410;11.852;2024-02-26T03:59:40;5.15;;;2.40;;
42146;SDS011;27815;43.410;11.852;2024-02-26T04:03:43;3.83;;;2.33;;
42146;SDS011;27815;43.410;11.852;2024-02-26T04:07:46;6.25;;;3.10;;
42146;SDS011;27815;43.410;11.852;2024-02-26T04:11:49;4.15;;;2.53;;
42146;SDS011;27815;43.410;11.852;2024-02-26T04:15:52;4.68;;;2.65;;
42146;SDS011;27815;43.410;11.852;2024-02-26T04:19:55;4.80;;;2.47;;
42146;SDS011;27815;43.410;11.852;2024-02-26T04:23:58;5.35;;;2.80;;
42146;SDS011;27815;43.410;11.852;2024-02-26T04:28:04;10.57;;;6.07;;
42146;SDS011;27815;43.410;11.852;2024-02-26T04:32:07;7.18;;;5.18;;
42146;SDS011;27815;43.410;11.852;2024-02-26T04:36:14;9.05;;;6.40;;
42146;SDS011;27815;43.410;11.852;2024-02-26T04:40:18;9.10;;;5.60;;
42146;SDS011;27815;43.410;11.852;2024-02-26T04:44:21;11.10;;;6.78;;
42146;SDS011;27815;43.410;11.852;2024-02-26T04:48:24;9.18;;;6.00;;
42146;SDS011;27815;43.410;11.852;2024-02-26T04:52:27;13.18;;;6.35;;
42146;SDS011;27815;43.410;11.852;2024-02-26T04:56:30;7.70;;;5.20;;
42146;SDS011;27815;43.410;11.852;2024-02-26T05:00:33;9.82;;;5.07;;
42146;SDS011;27815;43.410;11.852;2024-02-26T05:04:36;6.65;;;4.05;;
42146;SDS011;27815;43.410;11.852;2024-02-26T05:08:38;8.43;;;3.80;;
42146;SDS011;27815;43.410;11.852;2024-02-26T05:12:41;7.93;;;3.25;;
42146;SDS011;27815;43.410;11.852;2024-02-26T05:16:45;6.03;;;2.78;;
42146;SDS011;27815;43.410;11.852;2024-02-26T05:20:48;4.90;;;2.20;;
42146;SDS011;27815;43.410;11.852;2024-02-26T05:24:51;4.10;;;2.33;;
42146;SDS011;27815;43.410;11.852;2024-02-26T05:28:54;6.75;;;2.80;;
42146;SDS011;27815;43.410;11.852;2024-02-26T05:33:02;3.42;;;1.90;;
42146;SDS011;27815;43.410;11.852;2024-02-26T05:37:05;5.40;;;2.78;;
42146;SDS011;27815;43.410;11.852;2024-02-26T05:41:09;11.32;;;4.97;;
42146;SDS011;27815;43.410;11.852;2024-02-26T05:45:12;9.80;;;6.90;;
42146;SDS011;27815;43.410;11.852;2024-02-26T05:49:16;10.27;;;6.72;;
42146;SDS011;27815;43.410;11.852;2024-02-26T05:53:19;10.35;;;6.40;;
42146;SDS011;27815;43.410;11.852;2024-02-26T05:57:22;10.43;;;6.43;;
42146;SDS011;27815;43.410;11.852;2024-02-26T06:01:26;9.35;;;6.60;;
42146;SDS011;27815;43.410;11.852;2024-02-26T06:39:08;16.02;;;10.98;;
42146;SDS011;27815;43.410;11.852;2024-02-26T06:43:17;14.27;;;9.48;;
42146;SDS011;27815;43.410;11.852;2024-02-26T06:47:31;15.75;;;10.20;;
42146;SDS011;27815;43.410;11.852;2024-02-26T06:51:38;16.73;;;11.25;;
42146;SDS011;27815;43.410;11.852;2024-02-26T06:55:47;21.02;;;12.38;;
42146;SDS011;27815;43.410;11.852;2024-02-26T07:00:00;19.17;;;12.57;;
42146;SDS011;27815;43.410;11.852;2024-02-26T07:04:10;12.25;;;9.15;;
42146;SDS011;27815;43.410;11.852;2024-02-26T07:09:10;13.87;;;8.07;;
42146;SDS011;27815;43.410;11.852;2024-02-26T07:13:49;11.93;;;8.88;;
42146;SDS011;27815;43.410;11.852;2024-02-26T07:18:18;15.10;;;9.68;;
42146;SDS011;27815;43.410;11.852;2024-02-26T07:22:32;12.65;;;7.85;;
42146;SDS011;27815;43.410;11.852;2024-02-26T07:26:37;15.27;;;8.65;;
42146;SDS011;27815;43.410;11.852;2024-02-26T07:30:43;13.00;;;7.53;;
42146;SDS011;27815;43.410;11.852;2024-02-26T07:34:47;12.80;;;9.27;;
42146;SDS011;27815;43.410;11.852;2024-02-26T07:38:57;15.43;;;10.05;;
42146;SDS011;27815;43.410;11.852;2024-02-26T07:49:57;20.67;;;13.00;;
42146;SDS011;27815;43.410;11.852;2024-02-26T07:54:25;29.60;;;18.10;;
42146;SDS011;27815;43.410;11.852;2024-02-26T07:58:32;28.83;;;18.52;;
42146;SDS011;27815;43.410;11.852;2024-02-26T08:02:57;33.38;;;20.50;;
42146;SDS011;27815;43.410;11.852;2024-02-26T08:07:02;41.75;;;25.27;;
42146;SDS011;27815;43.410;11.852;2024-02-26T08:11:29;46.80;;;26.00;;
42146;SDS011;27815;43.410;11.852;2024-02-26T08:15:37;26.75;;;16.13;;
42146;SDS011;27815;43.410;11.852;2024-02-26T08:19:48;22.40;;;15.00;;
42146;SDS011;27815;43.410;11.852;2024-02-26T08:23:55;21.58;;;13.43;;
42146;SDS011;27815;43.410;11.852;2024-02-26T08:28:00;15.02;;;9.82;;
42146;SDS011;27815;43.410;11.852;2024-02-26T08:32:04;14.85;;;9.20;;
42146;SDS011;27815;43.410;11.852;2024-02-26T08:36:11;13.77;;;7.35;;
42146;SDS011;27815;43.410;11.852;2024-02-26T08:40:43;11.15;;;7.38;;
42146;SDS011;27815;43.410;11.852;2024-02-26T08:59:11;14.57;;;8.32;;
42146;SDS011;27815;43.410;11.852;2024-02-26T09:04:28;11.02;;;7.35;;
42146;SDS011;27815;43.410;11.852;2024-02-26T09:17:14;11.00;;;7.05;;
42146;SDS011;27815;43.410;11.852;2024-02-26T10:17:01;32.03;;;20.90;;
42146;SDS011;27815;43.410;11.852;2024-02-26T10:21:10;30.40;;;19.88;;
42146;SDS011;27815;43.410;11.852;2024-02-26T10:25:18;16.88;;;9.40;;
42146;SDS011;27815;43.410;11.852;2024-02-26T10:29:26;8.55;;;5.63;;
42146;SDS011;27815;43.410;11.852;2024-02-26T10:33:29;6.97;;;4.35;;
42146;SDS011;27815;43.410;11.852;2024-02-26T10:37:43;5.00;;;2.25;;
42146;SDS011;27815;43.410;11.852;2024-02-26T10:41:50;3.97;;;1.88;;
42146;SDS011;27815;43.410;11.852;2024-02-26T10:45:57;2.10;;;1.17;;
42146;SDS011;27815;43.410;11.852;2024-02-26T10:50:01;1.92;;;1.15;;
42146;SDS011;27815;43.410;11.852;2024-02-26T10:54:05;1.83;;;1.30;;
42146;SDS011;27815;43.410;11.852;2024-02-26T10:58:10;2.63;;;1.67;;
42146;SDS011;27815;43.410;11.852;2024-02-26T11:02:16;2.10;;;1.17;;
42146;SDS011;27815;43.410;11.852;2024-02-26T11:06:19;4.20;;;2.05;;
42146;SDS011;27815;43.410;11.852;2024-02-26T11:10:24;1.75;;;1.35;;
42146;SDS011;27815;43.410;11.852;2024-02-26T11:14:29;2.47;;;1.60;;
42146;SDS011;27815;43.410;11.852;2024-02-26T11:18:35;4.03;;;1.60;;
42146;SDS011;27815;43.410;11.852;2024-02-26T11:22:44;4.32;;;2.35;;
42146;SDS011;27815;43.410;11.852;2024-02-26T11:26:51;3.90;;;2.05;;
42146;SDS011;27815;43.410;11.852;2024-02-26T11:31:03;2.63;;;1.30;;
42146;SDS011;27815;43.410;11.852;2024-02-26T11:35:07;3.58;;;1.80;;
42146;SDS011;27815;43.410;11.852;2024-02-26T11:39:13;2.17;;;1.27;;
42146;SDS011;27815;43.410;11.852;2024-02-26T11:48:13;2.72;;;1.77;;
42146;SDS011;27815;43.410;11.852;2024-02-26T11:52:17;3.72;;;1.45;;
42146;SDS011;27815;43.410;11.852;2024-02-26T11:56:23;3.15;;;2.03;;
42146;SDS011;27815;43.410;11.852;2024-02-26T12:00:35;3.38;;;1.65;;
42146;SDS011;27815;43.410;11.852;2024-02-26T12:04:38;1.65;;;1.20;;
42146;SDS011;27815;43.410;11.852;2024-02-26T12:08:41;3.03;;;1.08;;
42146;SDS011;27815;43.410;11.852;2024-02-26T12:12:47;6.63;;;1.70;;
42146;SDS011;27815;43.410;11.852;2024-02-26T12:16:51;3.28;;;1.88;;
42146;SDS011;27815;43.410;11.852;2024-02-26T12:20:59;3.70;;;1.77;;
42146;SDS011;27815;43.410;11.852;2024-02-26T12:25:09;5.97;;;2.17;;
42146;SDS011;27815;43.410;11.852;2024-02-26T12:29:12;7.60;;;2.63;;
42146;SDS011;27815;43.410;11.852;2024-02-26T12:33:17;5.40;;;2.33;;
42146;SDS011;27815;43.410;11.852;2024-02-26T12:37:21;6.32;;;1.95;;
42146;SDS011;27815;43.410;11.852;2024-02-26T12:41:24;4.32;;;1.45;;
42146;SDS011;27815;43.410;11.852;2024-02-26T12:45:27;3.95;;;1.83;;
42146;SDS011;27815;43.410;11.852;2024-02-26T12:49:31;4.20;;;1.95;;
42146;SDS011;27815;43.410;11.852;2024-02-26T12:53:35;3.75;;;1.65;;
42146;SDS011;27815;43.410;11.852;2024-02-26T12:57:38;3.72;;;1.98;;
42146;SDS011;27815;43.410;11.852;2024-02-26T13:01:43;1.50;;;1.20;;
42146;SDS011;27815;43.410;11.852;2024-02-26T13:05:48;3.58;;;1.40;;
42146;SDS011;27815;43.410;11.852;2024-02-26T13:09:51;2.53;;;1.20;;
42146;SDS011;27815;43.410;11.852;2024-02-26T13:13:55;3.05;;;1.42;;
42146;SDS011;27815;43.410;11.852;2024-02-26T13:18:00;4.50;;;2.20;;
42146;SDS011;27815;43.410;11.852;2024-02-26T13:22:15;4.60;;;2.25;;
42146;SDS011;27815;43.410;11.852;2024-02-26T13:26:21;5.72;;;2.60;;
42146;SDS011;27815;43.410;11.852;2024-02-26T13:30:26;5.63;;;2.45;;
42146;SDS011;27815;43.410;11.852;2024-02-26T13:34:30;4.10;;;2.30;;
42146;SDS011;27815;43.410;11.852;2024-02-26T13:38:36;4.28;;;2.03;;
42146;SDS011;27815;43.410;11.852;2024-02-26T13:42:41;5.97;;;2.80;;
42146;SDS011;27815;43.410;11.852;2024-02-26T13:46:44;4.60;;;2.05;;
42146;SDS011;27815;43.410;11.852;2024-02-26T13:50:47;4.68;;;1.90;;
42146;SDS011;27815;43.410;11.852;2024-02-26T13:54:51;3.83;;;1.88;;
42146;SDS011;27815;43.410;11.852;2024-02-26T13:58:54;4.05;;;2.15;;
42146;SDS011;27815;43.410;11.852;2024-02-26T14:02:58;4.20;;;2.10;;
42146;SDS011;27815;43.410;11.852;2024-02-26T14:07:01;5.10;;;2.38;;
42146;SDS011;27815;43.410;11.852;2024-02-26T14:15:11;3.25;;;1.60;;
42146;SDS011;27815;43.410;11.852;2024-02-26T14:19:14;3.85;;;1.77;;
42146;SDS011;27815;43.410;11.852;2024-02-26T14:23:17;4.18;;;2.00;;
42146;SDS011;27815;43.410;11.852;2024-02-26T14:27:20;4.57;;;2.45;;
42146;SDS011;27815;43.410;11.852;2024-02-26T14:31:24;4.82;;;2.50;;
42146;SDS011;27815;43.410;11.852;2024-02-26T14:35:28;2.78;;;1.67;;
42146;SDS011;27815;43.410;11.852;2024-02-26T14:39:31;5.40;;;2.25;;
42146;SDS011;27815;43.410;11.852;2024-02-26T14:43:35;4.07;;;1.85;;
42146;SDS011;27815;43.410;11.852;2024-02-26T14:47:38;5.40;;;2.70;;
42146;SDS011;27815;43.410;11.852;2024-02-26T14:51:42;6.30;;;3.85;;
42146;SDS011;27815;43.410;11.852;2024-02-26T14:55:46;6.90;;;3.80;;
42146;SDS011;27815;43.410;11.852;2024-02-26T14:59:49;6.43;;;3.55;;
42146;SDS011;27815;43.410;11.852;2024-02-26T15:03:53;7.82;;;3.30;;
42146;SDS011;27815;43.410;11.852;2024-02-26T15:07:56;7.53;;;2.92;;
42146;SDS011;27815;43.410;11.852;2024-02-26T15:12:01;5.65;;;2.67;;
42146;SDS011;27815;43.410;11.852;2024-02-26T15:16:05;6.80;;;3.17;;
42146;SDS011;27815;43.410;11.852;2024-02-26T15:20:08;7.88;;;3.30;;
42146;SDS011;27815;43.410;11.852;2024-02-26T15:24:13;8.48;;;3.30;;
42146;SDS011;27815;43.410;11.852;2024-02-26T15:28:20;5.88;;;2.97;;
42146;SDS011;27815;43.410;11.852;2024-02-26T15:32:23;7.57;;;3.85;;
42146;SDS011;27815;43.410;11.852;2024-02-26T15:36:29;7.18;;;4.20;;
42146;SDS011;27815;43.410;11.852;2024-02-26T15:40:35;6.03;;;4.03;;
42146;SDS011;27815;43.410;11.852;2024-02-26T15:44:43;9.52;;;5.28;;
42146;SDS011;27815;43.410;11.852;2024-02-26T15:48:52;7.80;;;4.55;;
42146;SDS011;27815;43.410;11.852;2024-02-26T15:52:58;6.85;;;3.83;;
42146;SDS011;27815;43.410;11.852;2024-02-26T15:57:01;7.82;;;3.90;;
42146;SDS011;27815;43.410;11.852;2024-02-26T16:01:05;9.02;;;5.20;;
42146;SDS011;27815;43.410;11.852;2024-02-26T16:05:20;8.60;;;5.40;;
42146;SDS011;27815;43.410;11.852;2024-02-26T16:09:23;16.33;;;8.73;;
42146;SDS011;27815;43.410;11.852;2024-02-26T16:13:26;19.52;;;10.68;;
42146;SDS011;27815;43.410;11.852;2024-02-26T16:17:31;11.65;;;6.88;;
42146;SDS011;27815;43.410;11.852;2024-02-26T16:21:37;11.95;;;6.55;;
42146;SDS011;27815;43.410;11.852;2024-02-26T16:25:40;12.70;;;6.63;;
42146;SDS011;27815;43.410;11.852;2024-02-26T16:29:43;7.30;;;4.20;;
42146;SDS011;27815;43.410;11.852;2024-02-26T16:33:47;7.85;;;5.32;;
42146;SDS011;27815;43.410;11.852;2024-02-26T16:37:50;7.72;;;5.00;;
42146;SDS011;27815;43.410;11.852;2024-02-26T16:41:53;7.00;;;4.93;;
42146;SDS011;27815;43.410;11.852;2024-02-26T16:45:56;14.07;;;9.98;;
42146;SDS011;27815;43.410;11.852;2024-02-26T16:50:03;13.98;;;9.50;;
42146;SDS011;27815;43.410;11.852;2024-02-26T16:54:08;16.88;;;9.85;;
42146;SDS011;27815;43.410;11.852;2024-02-26T16:58:11;12.07;;;8.75;;
42146;SDS011;27815;43.410;11.852;2024-02-26T17:02:15;12.48;;;7.95;;
42146;SDS011;27815;43.410;11.852;2024-02-26T17:06:19;13.88;;;7.78;;
42146;SDS011;27815;43.410;11.852;2024-02-26T17:10:27;12.27;;;8.75;;
42146;SDS011;27815;43.410;11.852;2024-02-26T17:14:37;46.90;;;31.23;;
42146;SDS011;27815;43.410;11.852;2024-02-26T17:18:43;23.88;;;16.08;;
42146;SDS011;27815;43.410;11.852;2024-02-26T17:22:48;19.50;;;12.13;;
42146;SDS011;27815;43.410;11.852;2024-02-26T17:26:58;14.63;;;9.88;;
42146;SDS011;27815;43.410;11.852;2024-02-26T17:31:01;24.60;;;16.17;;
42146;SDS011;27815;43.410;11.852;2024-02-26T17:35:19;30.98;;;21.92;;
42146;SDS011;27815;43.410;11.852;2024-02-26T17:39:26;24.58;;;14.43;;
42146;SDS011;27815;43.410;11.852;2024-02-26T17:44:02;21.77;;;15.23;;
42146;SDS011;27815;43.410;11.852;2024-02-26T17:48:17;19.90;;;14.15;;
42146;SDS011;27815;43.410;11.852;2024-02-26T17:57:24;18.10;;;12.57;;
42146;SDS011;27815;43.410;11.852;2024-02-26T18:01:28;19.45;;;12.80;;
42146;SDS011;27815;43.410;11.852;2024-02-26T18:05:31;13.82;;;9.38;;
42146;SDS011;27815;43.410;11.852;2024-02-26T18:09:37;14.43;;;9.57;;
42146;SDS011;27815;43.410;11.852;2024-02-26T18:13:42;15.32;;;8.75;;
42146;SDS011;27815;43.410;11.852;2024-02-26T18:17:47;15.00;;;9.38;;
42146;SDS011;27815;43.410;11.852;2024-02-26T18:21:53;13.80;;;9.70;;
42146;SDS011;27815;43.410;11.852;2024-02-26T18:26:03;19.85;;;13.90;;
42146;SDS011;27815;43.410;11.852;2024-02-26T18:30:08;19.35;;;13.23;;
42146;SDS011;27815;43.410;11.852;2024-02-26T18:34:15;31.17;;;19.70;;
42146;SDS011;27815;43.410;11.852;2024-02-26T18:38:18;22.08;;;14.57;;
42146;SDS011;27815;43.410;11.852;2024-02-26T18:42:22;18.13;;;11.65;;
42146;SDS011;27815;43.410;11.852;2024-02-26T18:46:25;16.67;;;10.57;;
42146;SDS011;27815;43.410;11.852;2024-02-26T18:50:28;19.60;;;15.80;;
42146;SDS011;27815;43.410;11.852;2024-02-26T18:54:31;13.40;;;9.77;;
42146;SDS011;27815;43.410;11.852;2024-02-26T18:58:39;11.38;;;9.82;;
42146;SDS011;27815;43.410;11.852;2024-02-26T19:02:42;21.27;;;14.35;;
42146;SDS011;27815;43.410;11.852;2024-02-26T19:06:45;17.92;;;13.00;;
42146;SDS011;27815;43.410;11.852;2024-02-26T19:10:50;23.45;;;15.32;;
42146;SDS011;27815;43.410;11.852;2024-02-26T19:14:56;30.03;;;26.77;;
42146;SDS011;27815;43.410;11.852;2024-02-26T19:18:59;18.40;;;13.30;;
42146;SDS011;27815;43.410;11.852;2024-02-26T19:23:05;20.02;;;12.95;;
42146;SDS011;27815;43.410;11.852;2024-02-26T19:27:08;16.80;;;12.57;;
42146;SDS011;27815;43.410;11.852;2024-02-26T19:31:16;11.48;;;8.70;;
42146;SDS011;27815;43.410;11.852;2024-02-26T19:35:24;15.23;;;11.13;;
42146;SDS011;27815;43.410;11.852;2024-02-26T19:39:32;15.20;;;11.10;;
42146;SDS011;27815;43.410;11.852;2024-02-26T19:43:36;19.65;;;14.00;;
42146;SDS011;27815;43.410;11.852;2024-02-26T19:47:39;11.75;;;7.93;;
42146;SDS011;27815;43.410;11.852;2024-02-26T19:51:42;10.57;;;7.25;;
42146;SDS011;27815;43.410;11.852;2024-02-26T19:55:47;17.08;;;11.45;;
42146;SDS011;27815;43.410;11.852;2024-02-26T19:59:50;16.65;;;11.40;;
42146;SDS011;27815;43.410;11.852;2024-02-26T20:03:58;15.73;;;11.65;;
42146;SDS011;27815;43.410;11.852;2024-02-26T20:08:02;19.08;;;13.07;;
42146;SDS011;27815;43.410;11.852;2024-02-26T20:12:09;15.40;;;11.15;;
42146;SDS011;27815;43.410;11.852;2024-02-26T20:16:14;16.10;;;11.05;;
42146;SDS011;27815;43.410;11.852;2024-02-26T20:20:19;14.70;;;9.45;;
42146;SDS011;27815;43.410;11.852;2024-02-26T20:24:23;6.10;;;3.92;;
42146;SDS011;27815;43.410;11.852;2024-02-26T20:28:26;7.30;;;3.38;;
42146;SDS011;27815;43.410;11.852;2024-02-26T20:32:29;5.22;;;2.97;;
42146;SDS011;27815;43.410;11.852;2024-02-26T20:40:40;5.95;;;1.90;;
42146;SDS011;27815;43.410;11.852;2024-02-26T20:44:45;5.20;;;1.90;;
42146;SDS011;27815;43.410;11.852;2024-02-26T20:48:50;3.72;;;1.98;;
42146;SDS011;27815;43.410;11.852;2024-02-26T20:52:53;3.45;;;2.00;;
42146;SDS011;27815;43.410;11.852;2024-02-26T20:56:56;2.60;;;1.90;;
42146;SDS011;27815;43.410;11.852;2024-02-26T21:01:00;3.83;;;2.03;;
42146;SDS011;27815;43.410;11.852;2024-02-26T21:05:08;2.47;;;1.70;;
42146;SDS011;27815;43.410;11.852;2024-02-26T21:09:13;3.30;;;2.08;;
42146;SDS011;27815;43.410;11.852;2024-02-26T21:13:17;3.47;;;2.20;;
42146;SDS011;27815;43.410;11.852;2024-02-26T21:17:24;2.70;;;1.70;;
42146;SDS011;27815;43.410;11.852;2024-02-26T21:21:27;2.67;;;1.75;;
42146;SDS011;27815;43.410;11.852;2024-02-26T21:25:54;2.83;;;2.00;;
42146;SDS011;27815;43.410;11.852;2024-02-26T21:30:01;6.00;;;2.33;;
42146;SDS011;27815;43.410;11.852;2024-02-26T21:34:06;3.95;;;2.10;;
42146;SDS011;27815;43.410;11.852;2024-02-26T21:38:13;3.50;;;1.60;;
42146;SDS011;27815;43.410;11.852;2024-02-26T21:42:17;4.25;;;2.22;;
42146;SDS011;27815;43.410;11.852;2024-02-26T21:46:23;4.05;;;2.17;;
42146;SDS011;27815;43.410;11.852;2024-02-26T21:50:31;5.60;;;2.30;;
42146;SDS011;27815;43.410;11.852;2024-02-26T21:54:46;3.67;;;2.13;;
42146;SDS011;27815;43.410;11.852;2024-02-26T22:10:54;3.60;;;2.50;;
42146;SDS011;27815;43.410;11.852;2024-02-26T22:14:57;3.33;;;2.95;;
42146;SDS011;27815;43.410;11.852;2024-02-26T22:19:00;3.53;;;2.00;;
42146;SDS011;27815;43.410;11.852;2024-02-26T22:27:09;3.40;;;1.83;;
42146;SDS011;27815;43.410;11.852;2024-02-26T22:31:13;6.63;;;2.30;;
42146;SDS011;27815;43.410;11.852;2024-02-26T22:35:17;4.55;;;2.20;;
42146;SDS011;27815;43.410;11.852;2024-02-26T22:39:20;7.25;;;2.30;;
42146;SDS011;27815;43.410;11.852;2024-02-26T22:43:24;4.82;;;1.70;;
42146;SDS011;27815;43.410;11.852;2024-02-26T22:47:28;4.60;;;2.17;;
42146;SDS011;27815;43.410;11.852;2024-02-26T22:51:31;4.70;;;2.05;;
42146;SDS011;27815;43.410;11.852;2024-02-26T23:16:57;2.10;;;1.52;;
42146;SDS011;27815;43.410;11.852;2024-02-26T23:21:00;2.50;;;1.77;;
42146;SDS011;27815;43.410;11.852;2024-02-26T23:25:06;2.92;;;1.60;;
42146;SDS011;27815;43.410;11.852;2024-02-26T23:29:09;2.95;;;1.65;;
42146;SDS011;27815;43.410;11.852;2024-02-26T23:33:12;2.08;;;1.65;;
42146;SDS011;27815;43.410;11.852;2024-02-26T23:37:15;6.57;;;2.60;;
42146;SDS011;27815;43.410;11.852;2024-02-26T23:41:18;4.25;;;1.88;;
42146;SDS011;27815;43.410;11.852;2024-02-26T23:45:23;3.13;;;1.65;;
42146;SDS011;27815;43.410;11.852;2024-02-26T23:49:26;3.85;;;1.67;;
42146;SDS011;27815;43.410;11.852;2024-02-26T23:53:29;5.65;;;1.92;;
42146;SDS011;27815;43.410;11.852;2024-02-26T23:57:32;1.77;;;1.50;;
